Time;durP1;ratioP1;P1;durP2;ratioP2;P2;SDS_P1;SDS_P2;PMS_P1;PMS_P2;Temp;Humidity;BMP_temperature;BMP_pressure;BME280_temperature;BME280_humidity;BME280_pressure;Samples;Min_cycle;Max_cycle;Signal;HPM_P1;HPM_P2
2021/03/11 00:01:20;;;;;;;29.83;24.40;;;;;;;6.77;70.71;100395.69;6142731;28;20337;-56
2021/03/11 00:04:43;;;;;;;32.83;24.80;;;;;;;6.52;72.23;100388.78;6137757;28;20322;-58
2021/03/11 00:08:04;;;;;;;33.73;26.47;;;;;;;6.71;71.21;100385.34;6140515;29;20605;-55
2021/03/11 00:11:25;;;;;;;32.60;25.70;;;;;;;6.50;72.46;100375.84;6145509;28;20231;-57
2021/03/11 00:14:45;;;;;;;29.50;23.90;;;;;;;6.39;73.73;100349.09;6132619;28;20273;-54
2021/03/11 00:18:07;;;;;;;29.23;26.07;;;;;;;6.32;74.15;100345.66;6140649;29;20227;-53
2021/03/11 00:21:28;;;;;;;35.33;29.17;;;;;;;5.93;75.42;100334.34;6143463;28;20239;-58
2021/03/11 00:24:49;;;;;;;38.73;29.03;;;;;;;6.15;75.57;100331.84;6144160;28;20274;-57
2021/03/11 00:28:09;;;;;;;34.57;25.97;;;;;;;6.26;74.75;100324.94;6143462;28;20223;-53
2021/03/11 00:31:30;;;;;;;35.93;27.83;;;;;;;6.32;74.95;100314.63;6145085;28;20247;-54
2021/03/11 00:34:51;;;;;;;37.83;29.43;;;;;;;6.43;74.07;100315.47;6141690;28;20685;-57
2021/03/11 00:38:12;;;;;;;32.80;26.23;;;;;;;6.02;75.98;100321.47;6142546;28;20227;-54
2021/03/11 00:41:33;;;;;;;36.27;27.93;;;;;;;6.00;76.85;100309.41;6134077;28;20735;-52
2021/03/11 00:44:53;;;;;;;35.67;28.93;;;;;;;6.46;74.96;100291.34;6132409;28;20243;-57
2021/03/11 00:48:14;;;;;;;38.27;29.60;;;;;;;6.43;74.72;100273.22;6143547;28;20234;-58
2021/03/11 00:51:34;;;;;;;36.17;28.07;;;;;;;6.16;75.91;100271.50;6146729;28;20239;-56
2021/03/11 00:54:56;;;;;;;37.67;27.50;;;;;;;5.87;77.12;100255.09;6134391;28;20227;-55
2021/03/11 00:58:18;;;;;;;33.00;27.37;;;;;;;6.41;74.91;100260.28;6142005;28;20558;-56
2021/03/11 01:01:38;;;;;;;38.00;30.40;;;;;;;6.33;75.63;100251.66;6126100;28;20247;-57
2021/03/11 01:05:03;;;;;;;36.47;28.47;;;;;;;6.06;76.71;100237.03;6127918;28;20234;-55
2021/03/11 01:08:24;;;;;;;37.63;28.00;;;;;;;6.17;76.21;100226.69;6142731;28;20264;-58
2021/03/11 01:11:45;;;;;;;32.07;28.10;;;;;;;6.26;75.58;100205.97;6143641;28;20247;-55
2021/03/11 01:15:07;;;;;;;35.40;27.43;;;;;;;6.03;76.31;100193.97;6142731;28;20243;-54
2021/03/11 01:18:28;;;;;;;36.63;26.03;;;;;;;6.17;75.67;100206.00;6135481;28;20231;-55
2021/03/11 01:21:48;;;;;;;32.27;27.00;;;;;;;6.06;76.20;100165.50;6141228;28;20243;-56
2021/03/11 01:25:10;;;;;;;32.70;27.03;;;;;;;6.47;74.25;100164.56;6129492;28;20589;-56
2021/03/11 01:28:31;;;;;;;30.90;23.93;;;;;;;6.00;75.37;100144.84;6140631;28;20227;-55
2021/03/11 01:31:52;;;;;;;30.97;25.17;;;;;;;6.20;75.43;100149.09;6142282;28;20262;-57
2021/03/11 01:35:13;;;;;;;29.93;26.63;;;;;;;5.96;75.50;100140.53;6140980;28;21099;-56
2021/03/11 01:38:33;;;;;;;29.07;24.93;;;;;;;5.91;75.86;100124.13;6137213;28;20235;-56
2021/03/11 01:41:54;;;;;;;30.27;22.90;;;;;;;5.87;75.89;100117.25;6140912;28;20231;-56
2021/03/11 01:45:17;;;;;;;27.23;22.40;;;;;;;5.95;75.43;100112.94;6134394;28;20247;-57
2021/03/11 01:48:38;;;;;;;27.97;22.97;;;;;;;5.91;76.28;100109.50;6139364;28;20235;-55
2021/03/11 01:51:59;;;;;;;26.40;21.97;;;;;;;5.91;74.84;100106.91;6158718;28;20608;-55
2021/03/11 01:55:20;;;;;;;24.80;22.20;;;;;;;6.00;74.69;100115.53;6135549;28;20263;-56
2021/03/11 01:58:41;;;;;;;23.43;20.93;;;;;;;6.00;74.99;100108.66;6140231;28;20235;-56
2021/03/11 02:02:03;;;;;;;23.40;20.77;;;;;;;6.39;73.57;100091.31;6125451;28;20262;-58
2021/03/11 02:05:23;;;;;;;22.30;19.87;;;;;;;5.76;76.23;100098.28;6143564;28;20235;-56
2021/03/11 02:08:44;;;;;;;24.80;22.00;;;;;;;5.88;76.49;100059.53;6139699;28;20636;-56
2021/03/11 02:12:12;;;;;;;25.40;21.60;;;;;;;6.19;74.82;100054.31;6139329;28;20246;-54
2021/03/11 02:15:38;;;;;;;24.87;19.03;;;;;;;5.91;76.01;100049.19;6140197;28;21555;-56
2021/03/11 02:19:11;;;;;;;25.33;22.10;;;;;;;5.98;75.96;100039.75;6140996;28;20633;-57
2021/03/11 02:22:45;;;;;;;23.87;20.67;;;;;;;6.08;75.52;100000.91;6142187;28;20357;-57
2021/03/11 02:26:20;;;;;;;24.30;20.43;;;;;;;5.85;75.73;99990.63;6139508;28;20610;-55
2021/03/11 02:29:43;;;;;;;22.73;19.03;;;;;;;5.82;76.79;99972.56;6137821;28;20227;-54
2021/03/11 02:33:06;;;;;;;24.73;20.53;;;;;;;6.18;75.60;99977.63;6151443;28;20227;-57
2021/03/11 02:36:28;;;;;;;27.60;21.50;;;;;;;5.81;76.47;99954.47;6141224;28;20235;-54
2021/03/11 02:39:54;;;;;;;25.83;21.70;;;;;;;6.09;76.11;99927.69;6140928;28;20239;-54
2021/03/11 02:43:15;;;;;;;25.13;20.87;;;;;;;5.60;77.51;99917.50;6140309;28;20230;-54
2021/03/11 02:46:37;;;;;;;23.90;21.27;;;;;;;5.77;77.71;99916.59;6137115;28;20246;-54
2021/03/11 02:50:00;;;;;;;26.07;20.57;;;;;;;5.58;78.76;99906.31;6139172;28;20228;-54
2021/03/11 02:53:21;;;;;;;27.40;24.17;;;;;;;5.88;77.97;99879.50;6139206;28;20238;-55
2021/03/11 02:56:42;;;;;;;24.93;22.30;;;;;;;6.11;76.57;99881.16;6141956;28;20239;-57
2021/03/11 03:00:06;;;;;;;28.50;22.57;;;;;;;6.05;77.24;99871.69;6139918;28;20230;-55
2021/03/11 03:03:29;;;;;;;29.80;22.23;;;;;;;5.83;77.16;99857.97;6139132;28;20732;-55
2021/03/11 03:06:49;;;;;;;27.07;23.40;;;;;;;5.71;78.47;99852.88;6136535;28;20234;-57
2021/03/11 03:10:11;;;;;;;29.97;24.97;;;;;;;5.62;78.87;99835.72;6143107;28;20247;-57
2021/03/11 03:13:32;;;;;;;28.87;24.00;;;;;;;5.75;79.59;99821.00;6139015;28;20311;-56
2021/03/11 03:16:53;;;;;;;28.27;23.57;;;;;;;5.78;79.59;99825.28;6140510;28;20243;-56
2021/03/11 03:20:17;;;;;;;23.83;20.73;;;;;;;6.18;77.88;99819.91;6139803;29;20263;-57
2021/03/11 03:23:40;;;;;;;29.37;23.07;;;;;;;6.02;78.18;99804.50;6130096;28;20247;-54
2021/03/11 03:27:00;;;;;;;23.43;19.60;;;;;;;5.83;78.53;99795.13;6147950;28;20239;-58
2021/03/11 03:30:21;;;;;;;22.87;20.40;;;;;;;6.14;77.56;99789.78;6140336;28;20258;-56
2021/03/11 03:33:41;;;;;;;22.90;20.47;;;;;;;6.01;78.24;99765.72;6148122;28;20318;-56
2021/03/11 03:37:03;;;;;;;22.70;20.27;;;;;;;5.82;79.10;99765.84;6136677;28;20330;-57
2021/03/11 03:40:24;;;;;;;20.43;18.33;;;;;;;5.99;78.56;99767.47;6142458;28;20227;-56
2021/03/11 03:43:46;;;;;;;22.63;19.27;;;;;;;6.26;77.30;99763.81;6145704;28;20243;-56
2021/03/11 03:47:08;;;;;;;22.00;18.63;;;;;;;6.20;77.70;99745.78;6145492;28;20579;-58
2021/03/11 03:50:31;;;;;;;21.97;18.20;;;;;;;6.18;78.15;99742.34;6141703;28;20231;-57
2021/03/11 03:53:53;;;;;;;21.43;19.13;;;;;;;6.17;78.53;99748.41;6118549;28;20250;-56
2021/03/11 03:57:17;;;;;;;23.47;20.47;;;;;;;6.24;77.89;99740.59;6146418;28;20614;-57
2021/03/11 04:00:38;;;;;;;20.60;17.90;;;;;;;6.17;77.99;99735.47;6133736;28;20250;-57
2021/03/11 04:03:59;;;;;;;22.13;19.00;;;;;;;6.07;78.31;99750.22;6142508;28;20231;-55
2021/03/11 04:07:23;;;;;;;24.27;18.17;;;;;;;6.23;77.84;99735.44;6131215;28;20228;-58
2021/03/11 04:10:45;;;;;;;21.37;18.03;;;;;;;6.14;78.63;99714.81;6144456;28;20243;-55
2021/03/11 04:14:08;;;;;;;20.57;18.43;;;;;;;6.20;78.28;99722.50;6142655;28;20236;-57
2021/03/11 04:17:29;;;;;;;22.17;18.83;;;;;;;5.99;79.38;99721.84;6144523;28;20625;-57
2021/03/11 04:20:50;;;;;;;22.40;19.80;;;;;;;6.06;79.44;99702.81;6145560;28;20899;-54
2021/03/11 04:24:12;;;;;;;20.03;17.80;;;;;;;6.28;78.64;99694.84;6138092;28;20235;-58
2021/03/11 04:27:34;;;;;;;22.40;18.53;;;;;;;6.22;78.71;99689.75;6141075;28;20605;-57
2021/03/11 04:30:55;;;;;;;23.33;18.17;;;;;;;6.09;79.38;99673.50;6134044;28;20227;-55
2021/03/11 04:34:16;;;;;;;20.93;18.57;;;;;;;6.20;78.68;99675.97;6118009;28;20227;-55
2021/03/11 04:37:38;;;;;;;23.43;18.83;;;;;;;6.15;79.56;99665.69;6150808;28;20516;-55
2021/03/11 04:40:58;;;;;;;20.40;17.83;;;;;;;6.17;78.89;99648.44;6147783;28;20224;-55
2021/03/11 04:44:23;;;;;;;21.47;18.83;;;;;;;6.32;78.52;99650.03;6143239;28;20234;-55
2021/03/11 04:47:45;;;;;;;23.90;19.70;;;;;;;6.20;79.06;99642.38;6142746;28;20367;-55
2021/03/11 04:51:07;;;;;;;21.00;18.80;;;;;;;6.03;80.30;99640.81;6144207;28;20318;-56
2021/03/11 04:54:27;;;;;;;20.93;18.63;;;;;;;6.41;78.30;99629.22;6142446;28;20657;-54
2021/03/11 04:57:48;;;;;;;21.10;18.30;;;;;;;6.33;78.55;99620.69;6141402;28;20219;-57
2021/03/11 05:01:12;;;;;;;25.53;19.97;;;;;;;6.18;79.53;99626.00;6138564;28;20239;-60
2021/03/11 05:04:33;;;;;;;20.53;17.83;;;;;;;6.54;77.99;99617.00;6140412;28;20601;-56
2021/03/11 05:07:53;;;;;;;21.80;19.00;;;;;;;6.35;78.64;99605.16;6144561;28;20235;-54
2021/03/11 05:11:14;;;;;;;19.87;17.20;;;;;;;6.35;78.79;99611.19;6142575;28;20235;-57
2021/03/11 05:14:35;;;;;;;21.03;17.20;;;;;;;6.53;78.10;99609.25;6142652;28;20250;-57
2021/03/11 05:17:57;;;;;;;18.67;16.40;;;;;;;6.47;77.95;99586.91;6141169;28;20663;-58
2021/03/11 05:21:17;;;;;;;21.77;17.93;;;;;;;6.57;78.01;99585.94;6142800;28;20673;-56
2021/03/11 05:24:37;;;;;;;21.20;18.27;;;;;;;6.67;77.58;99577.19;6138351;28;20322;-56
2021/03/11 05:27:57;;;;;;;19.40;17.23;;;;;;;6.48;78.31;99565.34;6135915;28;20228;-56
2021/03/11 05:31:18;;;;;;;20.33;18.30;;;;;;;6.66;77.73;99564.25;6138257;28;20224;-58
2021/03/11 05:34:39;;;;;;;23.33;18.83;;;;;;;6.42;78.68;99549.91;6143708;28;20238;-55
2021/03/11 05:38:01;;;;;;;19.50;17.30;;;;;;;6.69;78.02;99538.34;6140394;28;20227;-57
2021/03/11 05:41:23;;;;;;;17.77;15.57;;;;;;;6.72;78.01;99543.47;6140852;28;20770;-55
2021/03/11 05:44:44;;;;;;;19.17;16.60;;;;;;;6.58;78.66;99535.91;6143354;28;20552;-57
2021/03/11 05:48:06;;;;;;;19.37;16.97;;;;;;;6.54;78.50;99547.16;6140889;28;20334;-57
2021/03/11 05:51:29;;;;;;;18.40;15.90;;;;;;;6.50;79.08;99533.41;6139538;28;20496;-58
2021/03/11 05:54:51;;;;;;;18.63;16.73;;;;;;;6.70;78.59;99529.69;6139263;28;20227;-57
2021/03/11 05:58:12;;;;;;;18.13;16.10;;;;;;;6.79;78.28;99528.72;6141552;28;20235;-55
2021/03/11 06:01:33;;;;;;;20.90;18.67;;;;;;;6.81;78.02;99526.97;6137970;28;20243;-55
2021/03/11 06:04:54;;;;;;;17.47;15.60;;;;;;;6.48;79.06;99522.22;6141728;28;20226;-55
2021/03/11 06:08:21;;;;;;;18.07;16.17;;;;;;;6.68;78.94;99490.06;6126285;29;20528;-55
2021/03/11 06:11:43;;;;;;;18.63;15.77;;;;;;;6.67;78.68;99475.44;6137772;28;20239;-55
2021/03/11 06:15:11;;;;;;;18.50;16.60;;;;;;;6.44;80.21;99468.84;6135998;28;20244;-57
2021/03/11 06:18:32;;;;;;;19.27;17.50;;;;;;;6.74;78.85;99447.72;6143526;28;20222;-54
2021/03/11 06:21:53;;;;;;;16.93;14.33;;;;;;;6.79;78.49;99444.19;6146582;28;20235;-56
2021/03/11 06:25:16;;;;;;;15.57;13.67;;;;;;;6.81;78.40;99445.03;6141178;28;20239;-57
2021/03/11 06:28:54;;;;;;;16.57;14.87;;;;;;;6.44;80.03;99426.63;6140562;28;20239;-58
2021/03/11 06:32:14;;;;;;;17.30;15.60;;;;;;;6.82;78.88;99430.34;6133294;28;20232;-54
2021/03/11 06:35:37;;;;;;;16.80;15.10;;;;;;;6.77;78.82;99427.00;6138471;28;20235;-59
2021/03/11 06:38:58;;;;;;;17.90;14.43;;;;;;;6.62;79.62;99418.56;6140248;28;20227;-58
2021/03/11 06:42:25;;;;;;;17.23;15.43;;;;;;;6.54;80.33;99419.56;6140209;28;20231;-58
2021/03/11 06:45:45;;;;;;;17.00;15.20;;;;;;;6.57;80.55;99385.88;6137607;28;20227;-57
2021/03/11 06:49:07;;;;;;;15.77;14.17;;;;;;;6.79;79.68;99382.09;6137048;28;20235;-58
2021/03/11 06:52:28;;;;;;;16.97;15.27;;;;;;;6.76;80.49;99363.16;6144011;28;20253;-59
2021/03/11 06:55:48;;;;;;;15.87;14.17;;;;;;;6.82;79.89;99379.44;6146937;28;20227;-56
2021/03/11 06:59:09;;;;;;;15.43;13.83;;;;;;;7.10;79.01;99371.22;6146169;28;20235;-55
2021/03/11 07:02:30;;;;;;;15.67;14.07;;;;;;;6.68;80.67;99373.63;6143259;28;20242;-54
2021/03/11 07:05:50;;;;;;;13.87;12.47;;;;;;;6.74;79.76;99364.94;6148698;28;20231;-57
2021/03/11 07:09:11;;;;;;;14.90;13.40;;;;;;;6.82;80.18;99358.72;6145413;28;20239;-52
2021/03/11 07:12:49;;;;;;;14.83;13.17;;;;;;;6.90;80.29;99363.78;6136063;28;20966;-57
2021/03/11 07:16:14;;;;;;;13.17;11.77;;;;;;;6.84;80.96;99345.78;6143025;28;20231;-57
2021/03/11 07:19:35;;;;;;;13.80;12.20;;;;;;;6.61;81.73;99366.84;6139537;28;20250;-56
2021/03/11 07:23:05;;;;;;;13.47;12.07;;;;;;;6.85;80.50;99335.41;6144620;28;20234;-58
2021/03/11 07:26:25;;;;;;;12.97;11.67;;;;;;;7.29;79.75;99349.28;6139798;28;20234;-57
2021/03/11 07:30:01;;;;;;;12.07;10.87;;;;;;;7.32;79.86;99344.91;6130257;28;20259;-54
2021/03/11 07:33:24;;;;;;;14.27;11.30;;;;;;;7.10;80.49;99327.19;6143281;29;20266;-57
2021/03/11 07:36:45;;;;;;;12.80;10.57;;;;;;;7.32;79.68;99334.56;6142460;29;20235;-56
2021/03/11 07:40:07;;;;;;;14.33;10.63;;;;;;;7.22;79.93;99347.66;6146064;28;20363;-56
2021/03/11 07:43:30;;;;;;;12.47;11.17;;;;;;;7.20;80.72;99326.13;6131684;28;20235;-56
2021/03/11 07:46:50;;;;;;;11.53;10.27;;;;;;;7.54;79.24;99312.53;6143900;28;20238;-55
2021/03/11 07:50:15;;;;;;;11.57;10.47;;;;;;;7.36;80.32;99289.59;6143628;28;20597;-58
2021/03/11 07:53:36;;;;;;;14.00;12.60;;;;;;;7.85;78.20;99284.22;6135499;28;20279;-57
2021/03/11 07:56:56;;;;;;;9.70;8.70;;;;;;;7.38;80.49;99280.03;6139849;28;20749;-56
2021/03/11 08:00:24;;;;;;;11.47;10.30;;;;;;;7.69;79.36;99262.94;6136981;28;20243;-52
2021/03/11 08:03:46;;;;;;;12.43;11.23;;;;;;;7.59;80.65;99253.69;6130442;28;20399;-57
2021/03/11 08:07:18;;;;;;;12.07;10.87;;;;;;;7.51;80.75;99247.81;6141610;28;20239;-54
2021/03/11 08:10:43;;;;;;;13.13;11.90;;;;;;;7.68;80.40;99242.28;6140399;28;20242;-56
2021/03/11 08:14:16;;;;;;;12.60;11.30;;;;;;;7.63;81.01;99260.50;6142571;28;20235;-55
2021/03/11 08:17:54;;;;;;;13.20;11.90;;;;;;;7.80;80.61;99249.78;6138313;28;20276;-56
2021/03/11 08:21:44;;;;;;;11.33;9.97;;;;;;;7.68;81.16;99231.91;6129419;28;20250;-58
2021/03/11 08:25:05;;;;;;;12.90;11.67;;;;;;;7.87;80.29;99232.31;6141341;28;20563;-60
2021/03/11 08:28:47;;;;;;;12.40;11.20;;;;;;;7.63;81.94;99244.09;6130569;28;20243;-58
2021/03/11 08:32:46;;;;;;;11.43;10.23;;;;;;;7.87;80.23;99227.13;6133144;28;20247;-60
2021/03/11 08:36:07;;;;;;;12.07;10.80;;;;;;;8.13;78.93;99204.94;6136582;28;20239;-57
2021/03/11 08:39:34;;;;;;;12.27;10.97;;;;;;;8.06;79.03;99215.47;6136997;28;20807;-55
2021/03/11 08:42:55;;;;;;;10.83;9.73;;;;;;;7.89;80.81;99204.66;6139516;28;20243;-54
2021/03/11 08:46:17;;;;;;;13.37;12.07;;;;;;;8.24;80.71;99190.81;6126947;28;20276;-56
2021/03/11 08:49:43;;;;;;;13.33;12.10;;;;;;;8.04;81.64;99180.94;6131740;28;20243;-58
2021/03/11 08:53:03;;;;;;;13.13;11.77;;;;;;;8.00;81.84;99171.53;6141006;28;20902;-56
2021/03/11 08:56:44;;;;;;;14.57;13.10;;;;;;;8.42;80.73;99154.94;6142255;28;20254;-53
2021/03/11 09:00:07;;;;;;;11.27;10.10;;;;;;;8.18;81.68;99164.16;6150347;28;20799;-70
2021/03/11 09:03:38;;;;;;;12.73;11.37;;;;;;;8.42;81.16;99148.00;6132870;28;20318;-57
2021/03/11 09:07:00;;;;;;;11.50;10.50;;;;;;;8.67;78.96;99144.75;6133768;28;20231;-57
2021/03/11 09:10:21;;;;;;;15.13;10.37;;;;;;;8.54;78.90;99153.75;6132190;28;20238;-58
2021/03/11 09:13:42;;;;;;;11.97;10.40;;;;;;;8.61;78.21;99176.06;6129934;28;20694;-57
2021/03/11 09:17:15;;;;;;;9.67;8.77;;;;;;;8.71;77.54;99143.78;6130186;28;20266;-56
2021/03/11 09:20:35;;;;;;;9.70;8.30;;;;;;;8.81;77.13;99160.78;6135607;28;20250;-55
2021/03/11 09:23:55;;;;;;;9.53;8.53;;;;;;;8.97;75.98;99132.63;6133040;28;20234;-55
2021/03/11 09:27:16;;;;;;;9.43;8.57;;;;;;;8.98;75.69;99123.13;6130551;28;20255;-59
2021/03/11 09:30:41;;;;;;;11.27;8.70;;;;;;;9.07;76.38;99135.78;6133576;28;20259;-57
2021/03/11 09:34:02;;;;;;;8.80;7.90;;;;;;;9.11;76.12;99111.47;6134842;28;21332;-58
2021/03/11 09:37:42;;;;;;;10.13;9.10;;;;;;;9.09;75.66;99102.84;6118594;28;20234;-58
2021/03/11 09:41:03;;;;;;;15.27;9.00;;;;;;;10.05;72.75;99104.09;6133447;28;20516;-56
2021/03/11 09:44:23;;;;;;;9.83;8.07;;;;;;;10.12;71.78;99081.34;6132772;28;20234;-57
2021/03/11 09:47:44;;;;;;;9.80;7.53;;;;;;;10.75;70.32;99057.41;6128411;28;20243;-58
2021/03/11 09:51:07;;;;;;;11.13;7.13;;;;;;;10.52;69.91;99053.06;6127748;28;20243;-55
2021/03/11 09:54:28;;;;;;;7.97;6.23;;;;;;;10.80;68.83;99040.72;6130106;28;20236;-57
2021/03/11 09:57:48;;;;;;;6.87;6.23;;;;;;;11.16;67.01;99024.53;6127563;28;20275;-55
2021/03/11 10:01:09;;;;;;;9.80;6.13;;;;;;;10.91;67.17;99031.63;6129544;28;20528;-57
2021/03/11 10:04:29;;;;;;;8.97;6.87;;;;;;;11.71;64.01;99034.47;6127260;28;20235;-57
2021/03/11 10:07:57;;;;;;;7.07;6.40;;;;;;;11.53;64.58;99028.25;6109104;28;20322;-59
2021/03/11 10:11:19;;;;;;;7.30;6.33;;;;;;;11.87;64.55;99023.41;6128044;28;20628;-56
2021/03/11 10:14:40;;;;;;;8.00;5.80;;;;;;;11.34;62.88;99080.31;6130189;28;20236;-58
2021/03/11 10:18:08;;;;;;;7.00;5.30;;;;;;;11.99;61.52;99004.63;6129310;28;20238;-58
2021/03/11 10:21:29;;;;;;;6.10;5.60;;;;;;;11.38;63.16;98992.38;6118701;28;20227;-59
2021/03/11 10:24:52;;;;;;;8.27;5.23;;;;;;;11.51;62.88;98985.75;6126564;28;20235;-65
2021/03/11 10:28:13;;;;;;;6.33;4.77;;;;;;;12.56;58.65;98947.22;6125568;28;20932;-54
2021/03/11 10:31:34;;;;;;;4.73;4.33;;;;;;;13.73;54.76;98952.84;6131052;28;20231;-56
2021/03/11 10:34:54;;;;;;;6.60;5.60;;;;;;;13.59;54.84;98934.41;6128481;28;20235;-56
2021/03/11 10:38:16;;;;;;;5.67;4.20;;;;;;;11.71;60.09;98999.72;6130868;28;20227;-54
2021/03/11 10:41:40;;;;;;;4.90;4.40;;;;;;;11.68;60.35;98932.91;6133403;28;20322;-56
2021/03/11 10:45:01;;;;;;;6.67;4.67;;;;;;;11.34;61.31;98941.31;6138576;28;20230;-55
2021/03/11 10:48:21;;;;;;;8.70;4.83;;;;;;;11.52;60.88;98937.94;6138015;28;20239;-56
2021/03/11 10:51:42;;;;;;;7.93;5.83;;;;;;;11.34;61.50;98930.88;6137127;28;20238;-54
2021/03/11 10:55:25;;;;;;;10.00;4.67;;;;;;;11.46;60.94;98933.00;6138652;28;20235;-56
2021/03/11 10:58:48;;;;;;;5.10;3.90;;;;;;;12.98;56.09;98920.81;6134555;28;20235;-55
2021/03/11 11:02:08;;;;;;;5.20;3.60;;;;;;;13.29;54.64;98923.69;6127569;28;20268;-55
2021/03/11 11:05:29;;;;;;;3.20;2.90;;;;;;;11.93;58.23;98922.25;6134438;28;20239;-55
2021/03/11 11:08:50;;;;;;;4.60;3.23;;;;;;;12.06;58.52;98906.91;6131394;28;20728;-55
2021/03/11 11:12:13;;;;;;;4.30;2.97;;;;;;;11.31;61.18;98938.84;6131624;28;20239;-57
2021/03/11 11:15:35;;;;;;;8.43;4.30;;;;;;;11.42;61.20;98911.41;6134127;28;20226;-56
2021/03/11 11:18:55;;;;;;;5.60;3.13;;;;;;;11.05;60.88;98917.34;6143009;28;20696;-57
2021/03/11 11:22:16;;;;;;;3.23;2.70;;;;;;;11.83;56.01;98890.50;6131654;28;20227;-54
2021/03/11 11:25:38;;;;;;;4.73;3.50;;;;;;;11.96;56.64;98896.06;6124462;28;20230;-53
2021/03/11 11:28:59;;;;;;;4.23;2.20;;;;;;;14.65;47.99;98894.69;6132672;28;20718;-54
2021/03/11 11:32:23;;;;;;;3.83;1.53;;;;;;;14.74;47.40;98883.69;6137737;28;21074;-55
2021/03/11 11:35:43;;;;;;;6.80;1.77;;;;;;;14.12;48.82;98874.94;6133215;28;20326;-56
2021/03/11 11:39:05;;;;;;;3.80;2.60;;;;;;;12.32;53.79;98886.59;6131514;28;20227;-55
2021/03/11 11:42:26;;;;;;;3.27;1.90;;;;;;;11.49;56.66;98878.09;6132672;28;20276;-56
2021/03/11 11:45:46;;;;;;;4.90;2.70;;;;;;;12.05;56.46;98867.84;6131347;28;20618;-55
2021/03/11 11:49:08;;;;;;;6.20;3.70;;;;;;;11.88;57.69;98851.16;6135256;28;20326;-54
2021/03/11 11:52:28;;;;;;;6.80;3.30;;;;;;;11.87;57.99;98853.84;6140112;28;20227;-55
2021/03/11 11:55:49;;;;;;;5.73;3.30;;;;;;;11.72;59.40;98835.38;6132023;28;20605;-57
2021/03/11 11:59:10;;;;;;;5.83;2.37;;;;;;;14.42;51.24;98846.19;6126888;28;20236;-56
2021/03/11 12:02:30;;;;;;;4.53;2.77;;;;;;;14.79;50.13;98841.50;6136503;28;21588;-54
2021/03/11 12:05:51;;;;;;;3.80;2.20;;;;;;;14.27;52.45;98824.34;6129350;28;20250;-56
2021/03/11 12:09:12;;;;;;;3.60;2.50;;;;;;;15.38;48.10;98832.84;6137510;28;20239;-57
2021/03/11 12:12:33;;;;;;;4.03;2.30;;;;;;;13.14;55.23;98810.31;6132335;28;20315;-53
2021/03/11 12:15:53;;;;;;;6.37;2.93;;;;;;;12.41;57.05;98777.38;6126918;28;20599;-55
2021/03/11 12:19:14;;;;;;;6.53;3.60;;;;;;;12.60;56.08;98792.09;6132579;28;20259;-54
2021/03/11 12:22:35;;;;;;;5.20;2.43;;;;;;;12.45;56.10;98756.34;6127654;28;20546;-56
2021/03/11 12:25:57;;;;;;;8.60;2.50;;;;;;;11.97;57.02;98782.94;6129153;28;20227;-54
2021/03/11 12:29:18;;;;;;;6.03;3.00;;;;;;;12.01;57.99;98768.84;6132748;28;20235;-57
2021/03/11 12:32:39;;;;;;;6.50;3.13;;;;;;;11.88;58.17;98770.31;6136287;28;20239;-52
2021/03/11 12:35:59;;;;;;;6.93;2.73;;;;;;;11.98;58.73;98758.56;6143988;28;20238;-58
2021/03/11 12:39:20;;;;;;;7.30;3.57;;;;;;;12.12;58.53;98764.91;6132153;28;20231;-55
2021/03/11 12:42:46;;;;;;;8.50;4.10;;;;;;;12.11;58.75;98753.59;6129176;28;20334;-54
2021/03/11 12:46:07;;;;;;;9.97;3.37;;;;;;;11.93;60.45;98759.72;6124527;28;20631;-55
2021/03/11 12:49:30;;;;;;;7.30;3.43;;;;;;;12.00;62.13;98767.16;6120074;28;20240;-51
2021/03/11 12:52:57;;;;;;;11.27;3.33;;;;;;;11.40;63.20;98792.53;6130495;28;20239;-53
2021/03/11 12:56:18;;;;;;;9.47;4.03;;;;;;;11.53;62.99;98791.03;6137999;28;20235;-52
2021/03/11 12:59:39;;;;;;;10.53;5.10;;;;;;;11.50;62.25;98761.66;6134745;28;20247;-53
2021/03/11 13:03:00;;;;;;;10.50;3.23;;;;;;;11.36;61.32;98770.97;6132689;28;20529;-55
2021/03/11 13:06:21;;;;;;;10.00;3.60;;;;;;;10.90;66.54;98782.53;6139490;28;20310;-51
2021/03/11 13:09:41;;;;;;;5.47;2.67;;;;;;;10.81;64.24;98783.75;6133070;28;20231;-54
2021/03/11 13:13:03;;;;;;;10.40;3.27;;;;;;;10.90;62.19;98756.50;6128628;28;20231;-56
2021/03/11 13:16:23;;;;;;;7.57;2.23;;;;;;;10.88;61.13;98771.34;6131539;28;20247;-57
2021/03/11 13:19:45;;;;;;;8.63;4.03;;;;;;;10.69;63.33;98815.53;6134125;28;20223;-57
2021/03/11 13:23:05;;;;;;;4.83;2.13;;;;;;;10.52;64.15;98761.56;6144813;28;20683;-53
2021/03/11 13:26:25;;;;;;;15.83;2.63;;;;;;;10.35;64.55;98796.94;6138704;28;20234;-52
2021/03/11 13:29:47;;;;;;;8.70;2.40;;;;;;;10.23;67.36;98797.38;6146675;28;20231;-56
2021/03/11 13:33:08;;;;;;;13.23;3.83;;;;;;;9.75;69.88;98806.16;6133287;28;20228;-55
2021/03/11 13:36:29;;;;;;;24.73;3.47;;;;;;;9.36;70.78;98819.72;6132562;28;20253;-59
2021/03/11 13:39:49;;;;;;;5.40;2.60;;;;;;;9.20;72.69;98820.28;6132351;28;20227;-58
2021/03/11 13:43:10;;;;;;;7.43;2.30;;;;;;;9.09;73.74;98817.19;6143004;28;20242;-57
2021/03/11 13:46:31;;;;;;;9.80;3.30;;;;;;;9.07;75.89;98796.50;6131975;28;20672;-59
2021/03/11 13:49:51;;;;;;;15.17;3.67;;;;;;;9.04;75.66;98804.38;6133881;28;20231;-56
2021/03/11 13:53:12;;;;;;;15.60;4.93;;;;;;;9.16;76.24;98797.91;6135084;28;20546;-58
2021/03/11 13:56:33;;;;;;;7.87;3.07;;;;;;;8.90;75.27;98836.91;6133953;28;21118;-56
2021/03/11 13:59:55;;;;;;;9.27;3.70;;;;;;;9.01;75.61;98799.28;6133755;28;20235;-55
2021/03/11 14:03:16;;;;;;;9.37;2.70;;;;;;;8.78;74.96;98839.03;6130202;28;20231;-55
2021/03/11 14:06:37;;;;;;;11.73;3.13;;;;;;;8.98;76.50;98814.16;6132831;28;20231;-54
2021/03/11 14:09:57;;;;;;;6.33;2.77;;;;;;;8.94;76.39;98828.97;6122897;28;20528;-56
2021/03/11 14:13:17;;;;;;;11.10;2.87;;;;;;;8.84;77.17;98799.03;6130508;28;20265;-55
2021/03/11 14:16:38;;;;;;;5.83;3.33;;;;;;;8.76;76.15;98775.94;6129965;28;20474;-56
2021/03/11 14:19:59;;;;;;;7.27;3.53;;;;;;;8.84;75.67;98861.31;6129892;28;20223;-57
2021/03/11 14:23:20;;;;;;;11.53;3.50;;;;;;;8.91;76.72;98839.47;6127729;28;20234;-57
2021/03/11 14:26:41;;;;;;;6.57;2.77;;;;;;;8.80;76.36;98873.56;6127633;28;20239;-58
2021/03/11 14:30:04;;;;;;;5.37;2.30;;;;;;;8.75;75.57;98813.16;6129951;28;20258;-56
2021/03/11 14:33:24;;;;;;;3.53;2.13;;;;;;;8.66;74.93;98844.63;6129076;28;20231;-58
2021/03/11 14:36:47;;;;;;;7.27;2.37;;;;;;;8.69;73.65;98818.56;6134514;28;20239;-54
2021/03/11 14:40:09;;;;;;;6.40;2.30;;;;;;;8.75;73.43;98817.53;6136781;28;20227;-52
2021/03/11 14:43:30;;;;;;;4.77;1.30;;;;;;;8.66;74.06;98865.38;6137013;28;20239;-57
2021/03/11 14:46:50;;;;;;;5.53;1.87;;;;;;;8.75;73.23;98854.69;6131456;28;20319;-58
2021/03/11 14:50:11;;;;;;;6.90;1.80;;;;;;;8.92;72.62;98840.28;6129457;28;20239;-58
2021/03/11 14:53:33;;;;;;;6.10;2.67;;;;;;;8.97;72.49;98844.44;6132484;28;20235;-57
2021/03/11 14:56:53;;;;;;;6.23;1.90;;;;;;;8.85;72.79;98858.69;6123761;28;20228;-55
2021/03/11 15:00:15;;;;;;;5.13;2.30;;;;;;;8.97;72.99;98880.78;6137954;28;20307;-58
2021/03/11 15:03:36;;;;;;;3.60;1.83;;;;;;;9.02;72.85;98867.66;6132036;28;20797;-54
2021/03/11 15:06:57;;;;;;;8.03;3.27;;;;;;;8.92;72.00;98874.91;6126614;28;20230;-54
2021/03/11 15:10:21;;;;;;;8.83;3.10;;;;;;;9.34;70.84;98870.91;6111472;28;20656;-55
2021/03/11 15:13:43;;;;;;;7.03;2.20;;;;;;;9.42;70.36;98902.63;6133032;28;20236;-55
2021/03/11 15:17:04;;;;;;;7.43;2.93;;;;;;;9.48;69.61;98891.19;6113312;28;21439;-53
2021/03/11 15:20:24;;;;;;;5.13;2.40;;;;;;;9.35;69.57;98929.75;6136663;28;20247;-55
2021/03/11 15:23:45;;;;;;;7.97;2.17;;;;;;;9.31;68.86;98917.78;6135300;28;20235;-53
2021/03/11 15:27:07;;;;;;;7.20;2.57;;;;;;;9.52;67.72;98924.81;6142718;28;20535;-54
2021/03/11 15:30:28;;;;;;;11.60;2.50;;;;;;;9.59;66.89;98882.09;6147109;28;20231;-53
2021/03/11 15:33:49;;;;;;;10.07;3.30;;;;;;;9.67;65.86;98910.41;6138283;28;20223;-52
2021/03/11 15:37:11;;;;;;;8.50;2.70;;;;;;;9.87;65.77;98935.72;6139089;28;20234;-53
2021/03/11 15:40:31;;;;;;;10.50;4.23;;;;;;;10.03;65.67;98920.41;6136834;28;20629;-57
2021/03/11 15:43:53;;;;;;;17.10;4.10;;;;;;;9.85;67.09;98958.34;6132132;28;20239;-50
2021/03/11 15:47:13;;;;;;;9.53;3.27;;;;;;;8.94;73.60;98971.78;6133094;28;20227;-54